M I D A S
Marine Information and Data Acquisition System
Tripno 1682 of the Zeeleeuw from 2009-04-27 14:56:34 to 2009-04-28 03:48:09
Back to CruiseResearch ActivitiesStationsMapUnderway DataData graphs

EquipmentUnitsComments
TimeDGPSUTC
LatitudeDGPSDM.mWGS84
LongitudeDGPSDM.mWGS84
SpeedMeteo Stationm/sRelative wind speed
DirectionMeteo StationdegRelative wind direction
TemperatureMeteo Stationdeg CelciusAir temperature
PressureMeteo StationPaAtmospheric pressure
HumidityMeteo Station%Relative humidity
Missing or incorrect values are displayed as -999
Metereological data collected by the RV Zeeleeuw from 2009-04-27 09:56:35 to 2009-04-28 08:48:07
Time Latitude Longitude Speed Direction Temperature Pressure Humidity
2009-04-27 09:58 51°10.373 2°38.831 -999 -999 -999 -999 -999
2009-04-27 10:00 51°10.238 2°38.204 -999 -999 -999 -999 -999
2009-04-27 10:02 51°10.151 2°37.558 -999 -999 -999 -999 -999
2009-04-27 10:04 51°10.085 2°36.909 -999 -999 -999 -999 -999
2009-04-27 10:06 51°10.069 2°36.253 -999 -999 -999 -999 -999
2009-04-27 10:08 51°10.315 2°35.834 -999 -999 -999 -999 -999
2009-04-27 10:10 51°10.639 2°36.056 -999 -999 -999 -999 -999
2009-04-27 10:12 51°10.956 2°36.327 -999 -999 -999 -999 -999
2009-04-27 10:14 51°11.282 2°36.581 -999 -999 -999 -999 -999
2009-04-27 10:16 51°11.608 2°36.834 -999 -999 -999 -999 -999
2009-04-27 10:18 51°11.945 2°37.036 -999 -999 -999 -999 -999
2009-04-27 10:20 51°12.294 2°37.2 -999 -999 -999 -999 -999
2009-04-27 10:22 51°12.643 2°37.359 -999 -999 -999 -999 -999
2009-04-27 10:24 51°13.01 2°37.304 -999 -999 -999 -999 -999
2009-04-27 10:26 51°13.382 2°37.247 -999 -999 -999 -999 -999
2009-04-27 10:28 51°13.744 2°37.103 -999 -999 -999 -999 -999
2009-04-27 10:30 51°14.064 2°36.747 -999 -999 -999 -999 -999
2009-04-27 10:32 51°14.39 2°36.419 -999 -999 -999 -999 -999
2009-04-27 10:34 51°14.736 2°36.152 -999 -999 -999 -999 -999
2009-04-27 10:36 51°15.102 2°36.264 -999 -999 -999 -999 -999
2009-04-27 10:38 51°15.465 2°36.438 -999 -999 -999 -999 -999
2009-04-27 10:40 51°15.834 2°36.593 -999 -999 -999 -999 -999
2009-04-27 10:42 51°16.153 2°36.708 -999 -999 -999 -999 -999
2009-04-27 10:44 51°16.428 2°36.79 -999 -999 -999 -999 -999
2009-04-27 10:46 51°16.599 2°36.82 -999 -999 -999 -999 -999
2009-04-27 10:48 51°16.644 2°36.797 -999 -999 -999 -999 -999
2009-04-27 10:50 51°16.659 2°36.77 -999 -999 -999 -999 -999
2009-04-27 10:52 51°16.665 2°36.747 -999 -999 -999 -999 -999
2009-04-27 10:54 51°16.669 2°36.736 -999 -999 -999 -999 -999
2009-04-27 10:56 51°16.867 2°36.533 -999 -999 -999 -999 -999
2009-04-27 10:58 51°17.179 2°36.2 -999 -999 -999 -999 -999
2009-04-27 11:00 51°17.469 2°35.825 -999 -999 -999 -999 -999
2009-04-27 11:02 51°17.703 2°35.361 -999 -999 -999 -999 -999
2009-04-27 11:04 51°17.822 2°34.784 -999 -999 -999 -999 -999
2009-04-27 11:06 51°17.836 2°34.14 -999 -999 -999 -999 -999
2009-04-27 11:08 51°17.783 2°33.513 -999 -999 -999 -999 -999
2009-04-27 11:10 51°17.686 2°32.901 -999 -999 -999 -999 -999
2009-04-27 11:12 51°17.532 2°32.329 -999 -999 -999 -999 -999
2009-04-27 11:14 51°17.379 2°31.76 -999 -999 -999 -999 -999
2009-04-27 11:16 51°17.234 2°31.191 -999 -999 -999 -999 -999
2009-04-27 11:18 51°17.084 2°30.627 -999 -999 -999 -999 -999
2009-04-27 11:20 51°16.932 2°30.05 -999 -999 -999 -999 -999
2009-04-27 11:22 51°16.783 2°29.486 -999 -999 -999 -999 -999
2009-04-27 11:24 51°16.633 2°28.915 -999 -999 -999 -999 -999
2009-04-27 11:26 51°16.485 2°28.349 -999 -999 -999 -999 -999
2009-04-27 11:28 51°16.335 2°27.782 -999 -999 -999 -999 -999
2009-04-27 11:30 51°16.197 2°27.221 -999 -999 -999 -999 -999
2009-04-27 11:32 51°16.071 2°26.721 -999 -999 -999 -999 -999
2009-04-27 11:34 51°15.987 2°26.224 -999 -999 -999 -999 -999
2009-04-27 11:36 51°16.125 2°25.775 -999 -999 -999 -999 -999
2009-04-27 11:38 51°16.202 2°25.685 -999 -999 -999 -999 -999
2009-04-27 11:40 51°16.224 2°25.751 -999 -999 -999 -999 -999
2009-04-27 11:42 51°16.241 2°25.864 -999 -999 -999 -999 -999
2009-04-27 11:44 51°16.249 2°25.997 -999 -999 -999 -999 -999
2009-04-27 11:46 51°16.253 2°26.135 -999 -999 -999 -999 -999
2009-04-27 11:48 51°16.311 2°26.164 -999 -999 -999 -999 -999
2009-04-27 11:50 51°16.514 2°25.783 -999 -999 -999 -999 -999
2009-04-27 11:52 51°16.885 2°25.73 -999 -999 -999 -999 -999
2009-04-27 11:54 51°17.258 2°26.061 -999 -999 -999 -999 -999
2009-04-27 11:56 51°17.577 2°26.529 -999 -999 -999 -999 -999
2009-04-27 11:58 51°17.902 2°26.997 -999 -999 -999 -999 -999
2009-04-27 13:00 51°26.413 2°23.759 -999 -999 -999 -999 -999
2009-04-27 13:02 51°26.707 2°23.374 -999 -999 -999 -999 -999
2009-04-27 13:04 51°26.965 2°22.96 -999 -999 -999 -999 -999
2009-04-27 13:06 51°27.213 2°22.529 -999 -999 -999 -999 -999
2009-04-27 13:08 51°27.453 2°22.073 -999 -999 -999 -999 -999
2009-04-27 13:10 51°27.689 2°21.607 -999 -999 -999 -999 -999
2009-04-27 13:12 51°27.91 2°21.184 -999 -999 -999 -999 -999
2009-04-27 13:14 51°28.034 2°20.995 -999 -999 -999 -999 -999
2009-04-27 13:16 51°28.091 2°21.03 -999 -999 -999 -999 -999
2009-04-27 13:18 51°28.154 2°21.102 -999 -999 -999 -999 -999
2009-04-27 13:20 51°28.215 2°21.192 -999 -999 -999 -999 -999
2009-04-27 13:22 51°28.275 2°21.283 -999 -999 -999 -999 -999
2009-04-27 13:24 51°28.336 2°21.37 -999 -999 -999 -999 -999
2009-04-27 13:26 51°28.335 2°21.358 -999 -999 -999 -999 -999
2009-04-27 13:28 51°28.181 2°21.302 -999 -999 -999 -999 -999
2009-04-27 13:30 51°28.072 2°21.191 -999 -999 -999 -999 -999
2009-04-27 13:32 51°28.058 2°21.121 -999 -999 -999 -999 -999
2009-04-27 13:34 51°28.013 2°21.006 -999 -999 -999 -999 -999
2009-04-27 13:36 51°28.052 2°21.045 -999 -999 -999 -999 -999
2009-04-27 13:38 51°28.115 2°21.12 -999 -999 -999 -999 -999
2009-04-27 13:40 51°28.175 2°21.21 -999 -999 -999 -999 -999
2009-04-27 13:42 51°28.241 2°21.278 -999 -999 -999 -999 -999
2009-04-27 13:44 51°28.324 2°21.315 -999 -999 -999 -999 -999
2009-04-27 13:46 51°28.618 2°21.486 -999 -999 -999 -999 -999
2009-04-27 13:48 51°29.044 2°21.667 -999 -999 -999 -999 -999
2009-04-27 13:50 51°29.48 2°21.858 -999 -999 -999 -999 -999
2009-04-27 13:52 51°29.912 2°22.061 -999 -999 -999 -999 -999
2009-04-27 13:54 51°30.346 2°22.257 -999 -999 -999 -999 -999
2009-04-27 13:56 51°30.771 2°22.511 -999 -999 -999 -999 -999
2009-04-27 13:58 51°31.194 2°22.775 -999 -999 -999 -999 -999
2009-04-27 14:00 51°31.618 2°23.016 -999 -999 -999 -999 -999
2009-04-27 14:02 51°32.043 2°23.251 -999 -999 -999 -999 -999
2009-04-27 14:04 51°32.471 2°23.366 -999 -999 -999 -999 -999
2009-04-27 14:06 51°32.906 2°23.474 -999 -999 -999 -999 -999
2009-04-27 14:08 51°33.317 2°23.347 -999 -999 -999 -999 -999
2009-04-27 14:10 51°33.711 2°23.135 -999 -999 -999 -999 -999
2009-04-27 14:12 51°34.113 2°22.91 -999 -999 -999 -999 -999
2009-04-27 14:14 51°34.51 2°22.69 -999 -999 -999 -999 -999
2009-04-27 14:16 51°34.9 2°22.468 -999 -999 -999 -999 -999
2009-04-27 14:18 51°35.317 2°22.313 -999 -999 -999 -999 -999
2009-04-27 14:20 51°35.757 2°22.413 -999 -999 -999 -999 -999
2009-04-27 14:22 51°36.209 2°22.564 -999 -999 -999 -999 -999
2009-04-27 14:24 51°36.658 2°22.718 -999 -999 -999 -999 -999
2009-04-27 14:26 51°37.103 2°22.851 -999 -999 -999 -999 -999
2009-04-27 14:28 51°37.536 2°23.084 -999 -999 -999 -999 -999
2009-04-27 14:30 51°37.958 2°23.334 -999 -999 -999 -999 -999
2009-04-27 14:32 51°38.378 2°23.58 -999 -999 -999 -999 -999
2009-04-27 14:34 51°38.803 2°23.82 -999 -999 -999 -999 -999
2009-04-27 14:36 51°39.22 2°24.057 -999 -999 -999 -999 -999
2009-04-27 14:38 51°39.643 2°24.313 -999 -999 -999 -999 -999
2009-04-27 14:40 51°40.064 2°24.613 -999 -999 -999 -999 -999
2009-04-27 14:42 51°40.484 2°24.9 -999 -999 -999 -999 -999
2009-04-27 14:44 51°40.815 2°25.081 -999 -999 -999 -999 -999
2009-04-27 14:46 51°41.03 2°25.188 -999 -999 -999 -999 -999
2009-04-27 14:48 51°41.127 2°25.189 -999 -999 -999 -999 -999
2009-04-27 14:50 51°41.207 2°25.242 -999 -999 -999 -999 -999
2009-04-27 14:52 51°41.285 2°25.312 -999 -999 -999 -999 -999
2009-04-27 14:54 51°41.364 2°25.388 -999 -999 -999 -999 -999
2009-04-27 14:56 51°41.442 2°25.468 -999 -999 -999 -999 -999
2009-04-27 14:58 51°41.532 2°25.512 -999 -999 -999 -999 -999
2009-04-27 15:00 51°41.662 2°25.697 -999 -999 -999 -999 -999
2009-04-27 15:02 51°41.756 2°26.079 -999 -999 -999 -999 -999
2009-04-27 15:04 51°41.853 2°26.477 -999 -999 -999 -999 -999
2009-04-27 15:06 51°41.947 2°26.88 -999 -999 -999 -999 -999
2009-04-27 15:08 51°42.046 2°27.295 -999 -999 -999 -999 -999
2009-04-27 15:10 51°42.145 2°27.713 -999 -999 -999 -999 -999
2009-04-27 15:12 51°42.249 2°28.128 -999 -999 -999 -999 -999
2009-04-27 15:14 51°42.345 2°28.541 -999 -999 -999 -999 -999
2009-04-27 15:16 51°42.442 2°28.955 -999 -999 -999 -999 -999
2009-04-27 15:18 51°42.537 2°29.385 -999 -999 -999 -999 -999
2009-04-27 15:20 51°42.606 2°30.024 -999 -999 -999 -999 -999
2009-04-27 15:22 51°42.633 2°30.691 -999 -999 -999 -999 -999
2009-04-27 15:24 51°42.772 2°31.361 -999 -999 -999 -999 -999
2009-04-27 15:26 51°42.926 2°32.019 -999 -999 -999 -999 -999
2009-04-27 15:28 51°43.069 2°32.676 -999 -999 -999 -999 -999
2009-04-27 15:30 51°43.236 2°33.338 -999 -999 -999 -999 -999
2009-04-27 15:32 51°43.405 2°33.988 -999 -999 -999 -999 -999
2009-04-27 15:34 51°43.564 2°34.63 -999 -999 -999 -999 -999
2009-04-27 15:36 51°43.712 2°35.295 -999 -999 -999 -999 -999
2009-04-27 15:38 51°43.867 2°35.944 -999 -999 -999 -999 -999
2009-04-27 15:40 51°44.018 2°36.606 -999 -999 -999 -999 -999
2009-04-27 15:42 51°44.168 2°37.259 -999 -999 -999 -999 -999
2009-04-27 15:44 51°44.319 2°37.911 -999 -999 -999 -999 -999
2009-04-27 15:46 51°44.466 2°38.564 -999 -999 -999 -999 -999
2009-04-27 15:48 51°44.606 2°39.212 -999 -999 -999 -999 -999
2009-04-27 15:50 51°44.743 2°39.86 -999 -999 -999 -999 -999
2009-04-27 15:52 51°44.87 2°40.507 -999 -999 -999 -999 -999
2009-04-27 15:54 51°44.963 2°41.172 -999 -999 -999 -999 -999
2009-04-27 15:56 51°44.883 2°41.759 -999 -999 -999 -999 -999
2009-04-27 15:58 51°44.861 2°42.153 -999 -999 -999 -999 -999
2009-04-27 16:00 51°45.019 2°42.195 -999 -999 -999 -999 -999
2009-04-27 16:02 51°45.016 2°42.028 -999 -999 -999 -999 -999
2009-04-27 16:04 51°45.081 2°42.007 -999 -999 -999 -999 -999
2009-04-27 16:06 51°45.159 2°42.05 -999 -999 -999 -999 -999
2009-04-27 16:08 51°45.237 2°42.112 -999 -999 -999 -999 -999
2009-04-27 16:10 51°45.312 2°42.173 -999 -999 -999 -999 -999
2009-04-27 16:12 51°45.395 2°42.213 -999 -999 -999 -999 -999
2009-04-27 16:14 51°45.525 2°42.334 -999 -999 -999 -999 -999
2009-04-27 16:16 51°45.464 2°42.681 -999 -999 -999 -999 -999
2009-04-27 16:18 51°45.379 2°43.051 -999 -999 -999 -999 -999
2009-04-27 16:20 51°45.253 2°43.355 -999 -999 -999 -999 -999
2009-04-27 16:22 51°45.116 2°43.645 -999 -999 -999 -999 -999
2009-04-27 16:24 51°44.98 2°43.932 -999 -999 -999 -999 -999
2009-04-27 16:26 51°44.816 2°44.208 -999 -999 -999 -999 -999
2009-04-27 16:28 51°44.653 2°44.486 -999 -999 -999 -999 -999
2009-04-27 16:30 51°44.487 2°44.762 -999 -999 -999 -999 -999
2009-04-27 16:32 51°44.31 2°45.05 -999 -999 -999 -999 -999
2009-04-27 16:34 51°44.125 2°45.341 -999 -999 -999 -999 -999
2009-04-27 16:36 51°43.943 2°45.63 -999 -999 -999 -999 -999
2009-04-27 16:38 51°43.761 2°45.914 -999 -999 -999 -999 -999
2009-04-27 16:40 51°43.577 2°46.203 -999 -999 -999 -999 -999
2009-04-27 16:42 51°43.395 2°46.486 -999 -999 -999 -999 -999
2009-04-27 16:44 51°43.212 2°46.779 -999 -999 -999 -999 -999
2009-04-27 16:46 51°43.033 2°47.067 -999 -999 -999 -999 -999
2009-04-27 16:48 51°42.844 2°47.361 -999 -999 -999 -999 -999
2009-04-27 16:50 51°42.633 2°47.672 -999 -999 -999 -999 -999
2009-04-27 16:52 51°42.417 2°47.981 -999 -999 -999 -999 -999
2009-04-27 16:54 51°42.196 2°48.287 -999 -999 -999 -999 -999
2009-04-27 16:56 51°41.977 2°48.593 -999 -999 -999 -999 -999
2009-04-27 16:58 51°41.757 2°48.911 -999 -999 -999 -999 -999
2009-04-27 17:00 51°41.537 2°49.251 -999 -999 -999 -999 -999
2009-04-27 17:02 51°41.311 2°49.592 -999 -999 -999 -999 -999
2009-04-27 17:04 51°41.068 2°49.985 -999 -999 -999 -999 -999
2009-04-27 17:06 51°40.817 2°50.41 -999 -999 -999 -999 -999
2009-04-27 17:08 51°40.569 2°50.83 -999 -999 -999 -999 -999
2009-04-27 17:10 51°40.32 2°51.25 -999 -999 -999 -999 -999
2009-04-27 17:12 51°40.071 2°51.673 -999 -999 -999 -999 -999
2009-04-27 17:14 51°39.822 2°52.09 -999 -999 -999 -999 -999
2009-04-27 17:16 51°39.58 2°52.535 -999 -999 -999 -999 -999
2009-04-27 17:18 51°39.34 2°52.973 -999 -999 -999 -999 -999
2009-04-27 17:20 51°39.093 2°53.414 -999 -999 -999 -999 -999
2009-04-27 17:22 51°38.845 2°53.847 -999 -999 -999 -999 -999
2009-04-27 17:24 51°38.594 2°54.28 -999 -999 -999 -999 -999
2009-04-27 17:26 51°38.345 2°54.72 -999 -999 -999 -999 -999
2009-04-27 17:28 51°38.097 2°55.154 -999 -999 -999 -999 -999
2009-04-27 17:30 51°37.854 2°55.589 -999 -999 -999 -999 -999
2009-04-27 17:32 51°37.616 2°56.019 -999 -999 -999 -999 -999
2009-04-27 17:34 51°37.375 2°56.454 -999 -999 -999 -999 -999
2009-04-27 17:36 51°37.131 2°56.901 -999 -999 -999 -999 -999
2009-04-27 17:38 51°36.887 2°57.337 -999 -999 -999 -999 -999
2009-04-27 17:40 51°36.635 2°57.764 -999 -999 -999 -999 -999
2009-04-27 17:42 51°36.378 2°58.187 -999 -999 -999 -999 -999
2009-04-27 17:44 51°36.125 2°58.613 -999 -999 -999 -999 -999
2009-04-27 17:46 51°35.867 2°59.034 -999 -999 -999 -999 -999
2009-04-27 17:48 51°35.607 2°59.45 -999 -999 -999 -999 -999
2009-04-27 17:50 51°35.349 2°59.867 -999 -999 -999 -999 -999
2009-04-27 17:52 51°35.159 3°0.204 -999 -999 -999 -999 -999
2009-04-27 17:54 51°35.016 3°0.47 -999 -999 -999 -999 -999
2009-04-27 17:56 51°34.95 3°0.583 -999 -999 -999 -999 -999
2009-04-27 17:58 51°34.948 3°0.492 -999 -999 -999 -999 -999
2009-04-27 18:00 51°34.993 3°0.465 -999 -999 -999 -999 -999
2009-04-27 18:02 51°35.041 3°0.46 -999 -999 -999 -999 -999
2009-04-27 18:04 51°35.089 3°0.461 -999 -999 -999 -999 -999
2009-04-27 18:06 51°35.096 3°0.378 -999 -999 -999 -999 -999
2009-04-27 18:08 51°34.943 3°0.448 -999 -999 -999 -999 -999
2009-04-27 18:10 51°34.737 3°0.519 -999 -999 -999 -999 -999
2009-04-27 18:12 51°34.518 3°0.6 -999 -999 -999 -999 -999
2009-04-27 18:14 51°34.29 3°0.635 -999 -999 -999 -999 -999
2009-04-27 18:16 51°34.057 3°0.621 -999 -999 -999 -999 -999
2009-04-27 18:18 51°33.822 3°0.573 -999 -999 -999 -999 -999
2009-04-27 18:20 51°33.594 3°0.482 -999 -999 -999 -999 -999
2009-04-27 18:22 51°33.363 3°0.333 -999 -999 -999 -999 -999
2009-04-27 18:24 51°33.141 3°0.024 -999 -999 -999 -999 -999
2009-04-27 18:26 51°32.86 2°59.658 -999 -999 -999 -999 -999
2009-04-27 18:28 51°32.565 2°59.286 -999 -999 -999 -999 -999
2009-04-27 18:30 51°32.28 2°58.896 -999 -999 -999 -999 -999
2009-04-27 18:32 51°31.998 2°58.49 -999 -999 -999 -999 -999
2009-04-27 18:34 51°31.727 2°58.069 -999 -999 -999 -999 -999
2009-04-27 18:36 51°31.455 2°57.637 -999 -999 -999 -999 -999
2009-04-27 18:38 51°31.188 2°57.186 -999 -999 -999 -999 -999
2009-04-27 18:40 51°30.921 2°56.74 -999 -999 -999 -999 -999
2009-04-27 18:42 51°30.653 2°56.299 -999 -999 -999 -999 -999
2009-04-27 18:44 51°30.386 2°55.855 -999 -999 -999 -999 -999
2009-04-27 18:46 51°30.117 2°55.404 -999 -999 -999 -999 -999
2009-04-27 18:48 51°29.843 2°54.958 -999 -999 -999 -999 -999
2009-04-27 18:50 51°29.569 2°54.501 -999 -999 -999 -999 -999
2009-04-27 18:52 51°29.295 2°54.043 -999 -999 -999 -999 -999
2009-04-27 18:54 51°29.021 2°53.586 -999 -999 -999 -999 -999
2009-04-27 18:56 51°28.746 2°53.128 -999 -999 -999 -999 -999
2009-04-27 18:58 51°28.474 2°52.667 -999 -999 -999 -999 -999
2009-04-27 19:00 51°28.2 2°52.207 -999 -999 -999 -999 -999
2009-04-27 19:02 51°27.926 2°51.748 -999 -999 -999 -999 -999
2009-04-27 19:04 51°27.652 2°51.291 -999 -999 -999 -999 -999
2009-04-27 19:06 51°27.379 2°50.826 -999 -999 -999 -999 -999
2009-04-27 19:08 51°27.106 2°50.355 -999 -999 -999 -999 -999
2009-04-27 19:10 51°26.831 2°49.882 -999 -999 -999 -999 -999
2009-04-27 19:12 51°26.553 2°49.41 -999 -999 -999 -999 -999
2009-04-27 19:14 51°26.267 2°48.951 -999 -999 -999 -999 -999
2009-04-27 19:16 51°26.033 2°48.634 -999 -999 -999 -999 -999
2009-04-27 19:18 51°25.986 2°48.495 -999 -999 -999 -999 -999
2009-04-27 19:20 51°26.011 2°48.459 -999 -999 -999 -999 -999
2009-04-27 19:22 51°26.033 2°48.417 -999 -999 -999 -999 -999
2009-04-27 19:24 51°26.055 2°48.372 -999 -999 -999 -999 -999
2009-04-27 19:26 51°26.094 2°48.285 -999 -999 -999 -999 -999
2009-04-27 19:28 51°26.16 2°48.333 -999 -999 -999 -999 -999
2009-04-27 19:30 51°25.947 2°48.346 -999 -999 -999 -999 -999
2009-04-27 19:32 51°25.617 2°48.341 -999 -999 -999 -999 -999
2009-04-27 19:34 51°25.281 2°48.455 -999 -999 -999 -999 -999
2009-04-27 19:36 51°25.056 2°48.561 -999 -999 -999 -999 -999
2009-04-27 19:38 51°25.012 2°48.528 -999 -999 -999 -999 -999
2009-04-27 19:40 51°24.983 2°48.426 -999 -999 -999 -999 -999
2009-04-27 19:42 51°24.997 2°48.338 -999 -999 -999 -999 -999
2009-04-27 19:44 51°25.016 2°48.282 -999 -999 -999 -999 -999
2009-04-27 19:46 51°25.024 2°48.245 -999 -999 -999 -999 -999
2009-04-27 19:48 51°25.029 2°48.206 -999 -999 -999 -999 -999
2009-04-27 19:50 51°25.089 2°48.207 -999 -999 -999 -999 -999
2009-04-27 19:52 51°25.167 2°48.524 -999 -999 -999 -999 -999
2009-04-27 19:54 51°25.264 2°48.892 -999 -999 -999 -999 -999
2009-04-27 19:56 51°25.359 2°49.255 -999 -999 -999 -999 -999
2009-04-27 19:58 51°25.449 2°49.62 -999 -999 -999 -999 -999
2009-04-27 20:00 51°25.538 2°49.987 -999 -999 -999 -999 -999
2009-04-27 20:02 51°25.624 2°50.354 -999 -999 -999 -999 -999
2009-04-27 20:04 51°25.709 2°50.721 -999 -999 -999 -999 -999
2009-04-27 20:06 51°25.792 2°51.089 -999 -999 -999 -999 -999
2009-04-27 20:08 51°25.876 2°51.456 -999 -999 -999 -999 -999
2009-04-27 20:10 51°25.963 2°51.828 -999 -999 -999 -999 -999
2009-04-27 20:12 51°26.048 2°52.201 -999 -999 -999 -999 -999
2009-04-27 20:14 51°26.136 2°52.569 -999 -999 -999 -999 -999
2009-04-27 20:16 51°26.223 2°52.944 -999 -999 -999 -999 -999
2009-04-27 20:18 51°26.316 2°53.324 -999 -999 -999 -999 -999
2009-04-27 20:20 51°26.404 2°53.705 -999 -999 -999 -999 -999
2009-04-27 20:22 51°26.493 2°54.086 -999 -999 -999 -999 -999
2009-04-27 20:24 51°26.578 2°54.46 -999 -999 -999 -999 -999
2009-04-27 20:26 51°26.663 2°54.826 -999 -999 -999 -999 -999
2009-04-27 20:28 51°26.745 2°55.199 -999 -999 -999 -999 -999
2009-04-27 20:30 51°26.823 2°55.572 -999 -999 -999 -999 -999
2009-04-27 20:32 51°26.903 2°55.945 -999 -999 -999 -999 -999
2009-04-27 20:34 51°26.981 2°56.317 -999 -999 -999 -999 -999
2009-04-27 20:36 51°27.058 2°56.689 -999 -999 -999 -999 -999
2009-04-27 20:38 51°27.129 2°57.063 -999 -999 -999 -999 -999
2009-04-27 20:40 51°27.206 2°57.446 -999 -999 -999 -999 -999
2009-04-27 20:42 51°27.281 2°57.826 -999 -999 -999 -999 -999
2009-04-27 20:44 51°27.351 2°58.206 -999 -999 -999 -999 -999
2009-04-27 20:46 51°27.417 2°58.586 -999 -999 -999 -999 -999
2009-04-27 20:48 51°27.481 2°58.966 -999 -999 -999 -999 -999
2009-04-27 20:50 51°27.546 2°59.347 -999 -999 -999 -999 -999
2009-04-27 20:52 51°27.606 2°59.73 -999 -999 -999 -999 -999
2009-04-27 20:54 51°27.666 3°0.11 -999 -999 -999 -999 -999
2009-04-27 20:56 51°27.726 3°0.488 -999 -999 -999 -999 -999
2009-04-27 20:58 51°27.795 3°0.882 -999 -999 -999 -999 -999
2009-04-27 21:00 51°27.869 3°1.275 -999 -999 -999 -999 -999
2009-04-27 21:02 51°27.943 3°1.674 -999 -999 -999 -999 -999
2009-04-27 21:04 51°28.018 3°2.08 -999 -999 -999 -999 -999
2009-04-27 21:06 51°28.078 3°2.496 -999 -999 -999 -999 -999
2009-04-27 21:08 51°28.122 3°2.92 -999 -999 -999 -999 -999
2009-04-27 21:10 51°28.123 3°3.28 -999 -999 -999 -999 -999
2009-04-27 21:12 51°28.115 3°3.537 -999 -999 -999 -999 -999
2009-04-27 21:14 51°28.211 3°3.685 -999 -999 -999 -999 -999
2009-04-27 21:16 51°28.267 3°3.562 -999 -999 -999 -999 -999
2009-04-27 21:18 51°28.265 3°3.48 -999 -999 -999 -999 -999
2009-04-27 21:20 51°28.253 3°3.421 -999 -999 -999 -999 -999
2009-04-27 21:22 51°28.284 3°3.397 -999 -999 -999 -999 -999
2009-04-27 21:24 51°28.189 3°3.552 -999 -999 -999 -999 -999
2009-04-27 21:26 51°28.032 3°3.837 -999 -999 -999 -999 -999
2009-04-27 21:28 51°27.862 3°4.161 -999 -999 -999 -999 -999
2009-04-27 21:30 51°27.684 3°4.497 -999 -999 -999 -999 -999
2009-04-27 21:32 51°27.516 3°4.85 -999 -999 -999 -999 -999
2009-04-27 21:34 51°27.343 3°5.209 -999 -999 -999 -999 -999
2009-04-27 21:36 51°27.165 3°5.568 -999 -999 -999 -999 -999
2009-04-27 21:38 51°27.001 3°5.946 -999 -999 -999 -999 -999
2009-04-27 21:40 51°26.846 3°6.345 -999 -999 -999 -999 -999
2009-04-27 21:42 51°26.69 3°6.748 -999 -999 -999 -999 -999
2009-04-27 21:44 51°26.533 3°7.151 -999 -999 -999 -999 -999
2009-04-27 21:46 51°26.381 3°7.559 -999 -999 -999 -999 -999
2009-04-27 21:48 51°26.328 3°7.997 -999 -999 -999 -999 -999
2009-04-27 21:50 51°26.303 3°8.401 -999 -999 -999 -999 -999
2009-04-27 21:52 51°26.37 3°8.451 -999 -999 -999 -999 -999
2009-04-27 21:54 51°26.433 3°8.372 -999 -999 -999 -999 -999
2009-04-27 21:56 51°26.425 3°8.353 -999 -999 -999 -999 -999
2009-04-27 21:58 51°26.397 3°8.341 -999 -999 -999 -999 -999
2009-04-27 22:00 51°26.359 3°8.331 -999 -999 -999 -999 -999
2009-04-27 22:02 51°26.343 3°8.319 -999 -999 -999 -999 -999
2009-04-27 22:04 51°26.347 3°8.513 -999 -999 -999 -999 -999
2009-04-27 22:06 51°26.404 3°9.028 -999 -999 -999 -999 -999
2009-04-27 22:08 51°26.474 3°9.591 -999 -999 -999 -999 -999
2009-04-27 22:10 51°26.541 3°10.161 -999 -999 -999 -999 -999
2009-04-27 22:12 51°26.604 3°10.739 -999 -999 -999 -999 -999
2009-04-27 22:14 51°26.669 3°11.316 -999 -999 -999 -999 -999
2009-04-27 22:16 51°26.738 3°11.886 -999 -999 -999 -999 -999
2009-04-27 22:18 51°26.805 3°12.457 -999 -999 -999 -999 -999
2009-04-27 22:20 51°26.867 3°13.031 -999 -999 -999 -999 -999
2009-04-27 22:22 51°26.882 3°13.626 -999 -999 -999 -999 -999
2009-04-27 22:24 51°26.882 3°14.163 -999 -999 -999 -999 -999
2009-04-27 22:26 51°26.908 3°14.341 -999 -999 -999 -999 -999
2009-04-27 22:28 51°26.942 3°14.308 -999 -999 -999 -999 -999
2009-04-27 22:30 51°26.934 3°14.304 -999 -999 -999 -999 -999
2009-04-27 22:32 51°26.911 3°14.313 -999 -999 -999 -999 -999
2009-04-27 22:34 51°26.881 3°14.329 -999 -999 -999 -999 -999
2009-04-27 22:36 51°26.847 3°14.346 -999 -999 -999 -999 -999
2009-04-27 22:38 51°26.812 3°14.366 -999 -999 -999 -999 -999
2009-04-27 22:40 51°26.778 3°14.387 -999 -999 -999 -999 -999
2009-04-27 22:42 51°26.741 3°14.409 -999 -999 -999 -999 -999
2009-04-27 22:44 51°26.754 3°14.37 -999 -999 -999 -999 -999
2009-04-27 22:46 51°26.798 3°14.115 -999 -999 -999 -999 -999
2009-04-27 22:48 51°26.79 3°13.642 -999 -999 -999 -999 -999
2009-04-27 22:50 51°26.787 3°13.092 -999 -999 -999 -999 -999
2009-04-27 22:52 51°26.795 3°12.51 -999 -999 -999 -999 -999
2009-04-27 22:54 51°26.739 3°11.913 -999 -999 -999 -999 -999
2009-04-27 22:56 51°26.367 3°11.654 -999 -999 -999 -999 -999
2009-04-27 22:58 51°25.961 3°11.475 -999 -999 -999 -999 -999
2009-04-27 23:00 51°25.601 3°11.234 -999 -999 -999 -999 -999
2009-04-27 23:02 51°25.317 3°11.013 -999 -999 -999 -999 -999
2009-04-27 23:04 51°24.945 3°10.799 -999 -999 -999 -999 -999
2009-04-27 23:06 51°24.553 3°10.665 -999 -999 -999 -999 -999
2009-04-27 23:08 51°24.135 3°10.742 -999 -999 -999 -999 -999
2009-04-27 23:10 51°23.726 3°10.87 -999 -999 -999 -999 -999
2009-04-27 23:12 51°23.319 3°10.943 -999 -999 -999 -999 -999
2009-04-27 23:14 51°22.977 3°10.992 -999 -999 -999 -999 -999
2009-04-27 23:16 51°22.667 3°11.086 -999 -999 -999 -999 -999
2009-04-27 23:18 51°22.415 3°11.186 -999 -999 -999 -999 -999
2009-04-27 23:20 51°22.411 3°11.32 -999 -999 -999 -999 -999
2009-04-27 23:22 51°22.487 3°11.337 -999 -999 -999 -999 -999
2009-04-27 23:24 51°22.509 3°11.337 -999 -999 -999 -999 -999
2009-04-27 23:26 51°22.523 3°11.342 -999 -999 -999 -999 -999
2009-04-27 23:28 51°22.53 3°11.352 -999 -999 -999 -999 -999
2009-04-27 23:30 51°22.534 3°11.371 -999 -999 -999 -999 -999
2009-04-27 23:32 51°22.535 3°11.394 -999 -999 -999 -999 -999
2009-04-27 23:34 51°22.535 3°11.42 -999 -999 -999 -999 -999
2009-04-27 23:36 51°22.532 3°11.447 -999 -999 -999 -999 -999
2009-04-27 23:38 51°22.527 3°11.476 -999 -999 -999 -999 -999
2009-04-27 23:40 51°22.523 3°11.508 -999 -999 -999 -999 -999
2009-04-27 23:42 51°22.518 3°11.54 -999 -999 -999 -999 -999
2009-04-27 23:44 51°22.546 3°11.643 -999 -999 -999 -999 -999
2009-04-27 23:46 51°22.548 3°12.039 -999 -999 -999 -999 -999
2009-04-27 23:48 51°22.56 3°12.514 -999 -999 -999 -999 -999
2009-04-27 23:50 51°22.569 3°12.994 -999 -999 -999 -999 -999
2009-04-27 23:52 51°22.596 3°13.314 -999 -999 -999 -999 -999
2009-04-27 23:54 51°22.605 3°13.375 -999 -999 -999 -999 -999
2009-04-27 23:56 51°22.599 3°13.422 -999 -999 -999 -999 -999
2009-04-27 23:58 51°22.591 3°13.473 -999 -999 -999 -999 -999
2009-04-28 00:00 51°22.614 3°13.57 -999 -999 -999 -999 -999
2009-04-28 00:01 51°22.628 3°13.665 -999 -999 -999 -999 -999
2009-04-28 00:02 51°22.646 3°13.768 -999 -999 -999 -999 -999
2009-04-28 00:03 51°22.665 3°13.878 -999 -999 -999 -999 -999
2009-04-28 00:04 51°40.776 2°47.364 -999 -999 -999 -999 -999
2009-04-28 00:05 51°40.944 2°47.469 -999 -999 -999 -999 -999
2009-04-28 00:06 51°41.109 2°47.578 -999 -999 -999 -999 -999
2009-04-28 00:07 51°41.275 2°47.679 -999 -999 -999 -999 -999
2009-04-28 00:08 51°41.441 2°47.784 -999 -999 -999 -999 -999
2009-04-28 00:09 51°41.606 2°47.891 -999 -999 -999 -999 -999
2009-04-28 00:10 51°41.77 2°48.003 -999 -999 -999 -999 -999
2009-04-28 00:11 51°41.902 2°48.195 -999 -999 -999 -999 -999
2009-04-28 00:12 51°41.998 2°48.443 -999 -999 -999 -999 -999
2009-04-28 00:13 51°42.046 2°48.727 -999 -999 -999 -999 -999
2009-04-28 00:14 51°41.998 2°49.016 -999 -999 -999 -999 -999
2009-04-28 00:15 51°41.86 2°49.244 -999 -999 -999 -999 -999
2009-04-28 00:16 51°41.687 2°49.418 -999 -999 -999 -999 -999
2009-04-28 00:17 51°41.485 2°49.476 -999 -999 -999 -999 -999
2009-04-28 00:18 51°41.275 2°49.442 -999 -999 -999 -999 -999
2009-04-28 00:19 51°41.069 2°49.361 -999 -999 -999 -999 -999
2009-04-28 00:20 51°40.866 2°49.259 -999 -999 -999 -999 -999
2009-04-28 00:21 51°40.664 2°49.154 -999 -999 -999 -999 -999
2009-04-28 00:22 51°40.461 2°49.049 -999 -999 -999 -999 -999
2009-04-28 00:23 51°40.26 2°48.939 -999 -999 -999 -999 -999
2009-04-28 00:24 51°40.059 2°48.831 -999 -999 -999 -999 -999
2009-04-28 00:25 51°39.858 2°48.725 -999 -999 -999 -999 -999
2009-04-28 00:26 51°39.658 2°48.618 -999 -999 -999 -999 -999
2009-04-28 00:27 51°39.458 2°48.512 -999 -999 -999 -999 -999
2009-04-28 00:28 51°39.258 2°48.409 -999 -999 -999 -999 -999
2009-04-28 00:29 51°39.059 2°48.306 -999 -999 -999 -999 -999
2009-04-28 00:30 51°38.859 2°48.205 -999 -999 -999 -999 -999
2009-04-28 00:31 51°38.66 2°48.104 -999 -999 -999 -999 -999
2009-04-28 00:32 51°38.462 2°47.995 -999 -999 -999 -999 -999
2009-04-28 00:33 51°38.265 2°47.891 -999 -999 -999 -999 -999
2009-04-28 00:34 51°38.067 2°47.789 -999 -999 -999 -999 -999
2009-04-28 00:35 51°37.869 2°47.689 -999 -999 -999 -999 -999
2009-04-28 00:36 51°37.671 2°47.591 -999 -999 -999 -999 -999
2009-04-28 00:37 51°37.473 2°47.484 -999 -999 -999 -999 -999
2009-04-28 00:38 51°37.274 2°47.385 -999 -999 -999 -999 -999
2009-04-28 00:39 51°37.075 2°47.289 -999 -999 -999 -999 -999
2009-04-28 00:40 51°36.876 2°47.191 -999 -999 -999 -999 -999
2009-04-28 00:41 51°36.678 2°47.089 -999 -999 -999 -999 -999
2009-04-28 00:42 51°36.48 2°46.99 -999 -999 -999 -999 -999
2009-04-28 00:43 51°36.282 2°46.892 -999 -999 -999 -999 -999
2009-04-28 00:44 51°36.085 2°46.796 -999 -999 -999 -999 -999
2009-04-28 00:45 51°35.888 2°46.7 -999 -999 -999 -999 -999
2009-04-28 00:46 51°35.693 2°46.596 -999 -999 -999 -999 -999
2009-04-28 00:47 51°35.498 2°46.489 -999 -999 -999 -999 -999
2009-04-28 00:48 51°35.302 2°46.383 -999 -999 -999 -999 -999
2009-04-28 00:49 51°35.105 2°46.286 -999 -999 -999 -999 -999
2009-04-28 00:50 51°34.909 2°46.179 -999 -999 -999 -999 -999
2009-04-28 00:51 51°34.714 2°46.072 -999 -999 -999 -999 -999
2009-04-28 00:52 51°34.519 2°45.965 -999 -999 -999 -999 -999
2009-04-28 00:53 51°34.324 2°45.863 -999 -999 -999 -999 -999
2009-04-28 00:54 51°34.13 2°45.752 -999 -999 -999 -999 -999
2009-04-28 00:55 51°33.938 2°45.633 -999 -999 -999 -999 -999
2009-04-28 00:56 51°33.747 2°45.517 -999 -999 -999 -999 -999
2009-04-28 00:57 51°33.557 2°45.404 -999 -999 -999 -999 -999
2009-04-28 00:58 51°33.367 2°45.289 -999 -999 -999 -999 -999
2009-04-28 00:59 51°33.177 2°45.183 -999 -999 -999 -999 -999
2009-04-28 01:00 51°22.848 3°19.343 -999 -999 -999 -999 -999
2009-04-28 01:02 51°22.7 3°19.089 -999 -999 -999 -999 -999
2009-04-28 01:04 51°22.638 3°18.779 -999 -999 -999 -999 -999
2009-04-28 01:06 51°22.604 3°18.623 -999 -999 -999 -999 -999
2009-04-28 01:08 51°22.638 3°18.679 -999 -999 -999 -999 -999
2009-04-28 01:10 51°22.672 3°18.776 -999 -999 -999 -999 -999
2009-04-28 01:12 51°22.706 3°18.895 -999 -999 -999 -999 -999
2009-04-28 01:14 51°22.739 3°19.024 -999 -999 -999 -999 -999
2009-04-28 01:16 51°22.77 3°19.158 -999 -999 -999 -999 -999
2009-04-28 01:18 51°22.808 3°19.248 -999 -999 -999 -999 -999
2009-04-28 01:20 51°22.742 3°19.069 -999 -999 -999 -999 -999
2009-04-28 01:22 51°22.643 3°18.737 -999 -999 -999 -999 -999
2009-04-28 01:24 51°22.677 3°18.707 -999 -999 -999 -999 -999
2009-04-28 01:26 51°22.701 3°18.761 -999 -999 -999 -999 -999
2009-04-28 01:28 51°22.713 3°18.848 -999 -999 -999 -999 -999
2009-04-28 01:30 51°22.728 3°18.959 -999 -999 -999 -999 -999
2009-04-28 01:32 51°22.748 3°19.084 -999 -999 -999 -999 -999
2009-04-28 01:34 51°22.755 3°19.077 -999 -999 -999 -999 -999
2009-04-28 01:36 51°22.789 3°18.666 -999 -999 -999 -999 -999
2009-04-28 01:38 51°22.817 3°18.18 -999 -999 -999 -999 -999
2009-04-28 01:40 51°22.836 3°17.704 -999 -999 -999 -999 -999
2009-04-28 01:42 51°22.843 3°17.248 -999 -999 -999 -999 -999
2009-04-28 01:44 51°22.854 3°16.783 -999 -999 -999 -999 -999
2009-04-28 01:46 51°22.855 3°16.324 -999 -999 -999 -999 -999
2009-04-28 01:48 51°22.853 3°15.868 -999 -999 -999 -999 -999
2009-04-28 01:50 51°22.849 3°15.42 -999 -999 -999 -999 -999
2009-04-28 01:52 51°22.848 3°14.974 -999 -999 -999 -999 -999
2009-04-28 01:54 51°22.843 3°14.523 -999 -999 -999 -999 -999
2009-04-28 01:56 51°22.84 3°14.068 -999 -999 -999 -999 -999
2009-04-28 01:58 51°22.833 3°13.608 -999 -999 -999 -999 -999
2009-04-28 02:00 51°22.772 3°13.163 -999 -999 -999 -999 -999
2009-04-28 02:02 51°22.631 3°12.733 -999 -999 -999 -999 -999
2009-04-28 02:04 51°22.493 3°12.293 -999 -999 -999 -999 -999
2009-04-28 02:06 51°22.359 3°11.842 -999 -999 -999 -999 -999
2009-04-28 02:08 51°22.293 3°11.367 -999 -999 -999 -999 -999
2009-04-28 02:10 51°22.236 3°10.89 -999 -999 -999 -999 -999
2009-04-28 02:12 51°22.189 3°10.392 -999 -999 -999 -999 -999
2009-04-28 02:14 51°22.169 3°9.876 -999 -999 -999 -999 -999
2009-04-28 02:16 51°22.145 3°9.363 -999 -999 -999 -999 -999
2009-04-28 02:18 51°22.118 3°8.85 -999 -999 -999 -999 -999
2009-04-28 02:20 51°22.094 3°8.34 -999 -999 -999 -999 -999
2009-04-28 02:22 51°22.07 3°7.824 -999 -999 -999 -999 -999
2009-04-28 02:24 51°22.047 3°7.301 -999 -999 -999 -999 -999
2009-04-28 02:26 51°22.023 3°6.783 -999 -999 -999 -999 -999
2009-04-28 02:28 51°21.963 3°6.286 -999 -999 -999 -999 -999
2009-04-28 02:30 51°21.875 3°5.804 -999 -999 -999 -999 -999
2009-04-28 02:32 51°21.789 3°5.317 -999 -999 -999 -999 -999
2009-04-28 02:34 51°21.678 3°4.841 -999 -999 -999 -999 -999
2009-04-28 02:36 51°21.56 3°4.369 -999 -999 -999 -999 -999
2009-04-28 02:38 51°21.452 3°3.891 -999 -999 -999 -999 -999
2009-04-28 02:40 51°21.346 3°3.418 -999 -999 -999 -999 -999
2009-04-28 02:42 51°21.245 3°2.946 -999 -999 -999 -999 -999
2009-04-28 02:44 51°21.141 3°2.475 -999 -999 -999 -999 -999
2009-04-28 02:46 51°21.05 3°1.993 -999 -999 -999 -999 -999
2009-04-28 02:48 51°20.957 3°1.511 -999 -999 -999 -999 -999
2009-04-28 02:50 51°20.863 3°1.027 -999 -999 -999 -999 -999
2009-04-28 02:52 51°20.774 3°0.536 -999 -999 -999 -999 -999
2009-04-28 02:54 51°20.672 3°0.039 -999 -999 -999 -999 -999
2009-04-28 02:56 51°20.564 2°59.538 -999 -999 -999 -999 -999
2009-04-28 02:58 51°20.436 2°59.045 -999 -999 -999 -999 -999
2009-04-28 03:00 51°20.306 2°58.554 -999 -999 -999 -999 -999
2009-04-28 03:02 51°20.17 2°58.058 -999 -999 -999 -999 -999
2009-04-28 03:04 51°20.008 2°57.588 -999 -999 -999 -999 -999
2009-04-28 03:06 51°19.845 2°57.121 -999 -999 -999 -999 -999
2009-04-28 03:08 51°19.684 2°56.644 -999 -999 -999 -999 -999
2009-04-28 03:10 51°19.525 2°56.165 -999 -999 -999 -999 -999
2009-04-28 03:12 51°19.365 2°55.681 -999 -999 -999 -999 -999
2009-04-28 03:14 51°19.204 2°55.196 -999 -999 -999 -999 -999
2009-04-28 03:16 51°19.018 2°54.733 -999 -999 -999 -999 -999
2009-04-28 03:18 51°18.805 2°54.295 -999 -999 -999 -999 -999
2009-04-28 03:20 51°18.562 2°53.909 -999 -999 -999 -999 -999
2009-04-28 03:22 51°18.299 2°53.557 -999 -999 -999 -999 -999
2009-04-28 03:24 51°18.028 2°53.219 -999 -999 -999 -999 -999
2009-04-28 03:26 51°17.759 2°52.875 -999 -999 -999 -999 -999
2009-04-28 03:28 51°17.489 2°52.537 -999 -999 -999 -999 -999
2009-04-28 03:30 51°17.189 2°52.272 -999 -999 -999 -999 -999
2009-04-28 03:32 51°16.838 2°52.356 -999 -999 -999 -999 -999
2009-04-28 03:34 51°16.491 2°52.569 -999 -999 -999 -999 -999
2009-04-28 03:36 51°16.148 2°52.785 -999 -999 -999 -999 -999
2009-04-28 03:38 51°15.813 2°53.065 -999 -999 -999 -999 -999
2009-04-28 03:40 51°15.484 2°53.373 -999 -999 -999 -999 -999
2009-04-28 03:42 51°15.153 2°53.672 -999 -999 -999 -999 -999
2009-04-28 03:44 51°14.854 2°54.054 -999 -999 -999 -999 -999
2009-04-28 03:46 51°14.611 2°54.562 -999 -999 -999 -999 -999
2009-04-28 03:48 51°14.36 2°55.046 -999 -999 -999 -999 -999
2009-04-28 03:50 51°14.124 2°55.428 -999 -999 -999 -999 -999
2009-04-28 03:52 51°13.884 2°55.588 -999 -999 -999 -999 -999
2009-04-28 03:54 51°13.715 2°55.786 -999 -999 -999 -999 -999
2009-04-28 03:56 51°13.664 2°55.948 -999 -999 -999 -999 -999
2009-04-28 03:58 51°13.663 2°55.959 -999 -999 -999 -999 -999
2009-04-28 04:00 51°13.661 2°55.959 -999 -999 -999 -999 -999
2009-04-28 04:02 51°13.664 2°55.959 -999 -999 -999 -999 -999
2009-04-28 04:04 51°13.664 2°55.959 -999 -999 -999 -999 -999
2009-04-28 06:38 51°13.66 2°55.961 -999 -999 -999 -999 -999
2009-04-28 06:40 51°13.662 2°55.962 -999 -999 -999 -999 -999
2009-04-28 06:42 51°13.663 2°55.961 -999 -999 -999 -999 -999
2009-04-28 06:44 51°13.663 2°55.96 -999 -999 -999 -999 -999
2009-04-28 06:46 51°13.662 2°55.96 -999 -999 -999 -999 -999
2009-04-28 06:48 51°13.663 2°55.961 -999 -999 -999 -999 -999
2009-04-28 06:50 51°13.663 2°55.959 -999 -999 -999 -999 -999
2009-04-28 06:52 51°13.662 2°55.959 -999 -999 -999 -999 -999
2009-04-28 06:54 51°13.691 2°55.848 -999 -999 -999 -999 -999
2009-04-28 06:56 51°13.704 2°55.745 -999 -999 -999 -999 -999
2009-04-28 06:58 51°13.846 2°55.624 -999 -999 -999 -999 -999
2009-04-28 07:00 51°14.119 2°55.418 -999 -999 -999 -999 -999
2009-04-28 07:02 51°14.359 2°55.089 -999 -999 -999 -999 -999
2009-04-28 07:04 51°14.645 2°54.739 -999 -999 -999 -999 -999
2009-04-28 07:06 51°14.997 2°54.449 -999 -999 -999 -999 -999
2009-04-28 07:08 51°15.349 2°54.154 -999 -999 -999 -999 -999
2009-04-28 07:10 51°15.698 2°53.855 -999 -999 -999 -999 -999
2009-04-28 07:12 51°16.051 2°53.564 -999 -999 -999 -999 -999
2009-04-28 07:14 51°16.399 2°53.251 -999 -999 -999 -999 -999
2009-04-28 07:16 51°16.748 2°52.915 -999 -999 -999 -999 -999
2009-04-28 07:18 51°17.084 2°52.569 -999 -999 -999 -999 -999
2009-04-28 07:20 51°17.407 2°52.188 -999 -999 -999 -999 -999
2009-04-28 07:22 51°17.7 2°51.739 -999 -999 -999 -999 -999
2009-04-28 07:24 51°17.996 2°51.29 -999 -999 -999 -999 -999
2009-04-28 07:26 51°18.303 2°50.855 -999 -999 -999 -999 -999
2009-04-28 07:28 51°18.613 2°50.421 -999 -999 -999 -999 -999
2009-04-28 07:30 51°18.915 2°49.97 -999 -999 -999 -999 -999
2009-04-28 07:32 51°19.223 2°49.516 -999 -999 -999 -999 -999
2009-04-28 07:34 51°19.532 2°49.057 -999 -999 -999 -999 -999
2009-04-28 07:36 51°19.835 2°48.6 -999 -999 -999 -999 -999
2009-04-28 07:38 51°20.158 2°48.179 -999 -999 -999 -999 -999
2009-04-28 07:40 51°20.507 2°47.82 -999 -999 -999 -999 -999
2009-04-28 07:42 51°20.844 2°47.435 -999 -999 -999 -999 -999
2009-04-28 07:44 51°21.238 2°47.313 -999 -999 -999 -999 -999
2009-04-28 07:46 51°21.635 2°47.216 -999 -999 -999 -999 -999
2009-04-28 07:48 51°22.03 2°47.13 -999 -999 -999 -999 -999
2009-04-28 07:50 51°22.415 2°46.981 -999 -999 -999 -999 -999
2009-04-28 07:52 51°22.658 2°46.454 -999 -999 -999 -999 -999
2009-04-28 07:54 51°22.817 2°45.823 -999 -999 -999 -999 -999
2009-04-28 07:56 51°22.965 2°45.181 -999 -999 -999 -999 -999
2009-04-28 07:58 51°23.119 2°44.561 -999 -999 -999 -999 -999
2009-04-28 08:00 51°23.326 2°43.978 -999 -999 -999 -999 -999
2009-04-28 08:02 51°23.563 2°43.423 -999 -999 -999 -999 -999
2009-04-28 08:04 51°23.824 2°42.899 -999 -999 -999 -999 -999
2009-04-28 08:06 51°24.094 2°42.389 -999 -999 -999 -999 -999
2009-04-28 08:08 51°24.379 2°41.911 -999 -999 -999 -999 -999
2009-04-28 08:10 51°24.69 2°41.475 -999 -999 -999 -999 -999
2009-04-28 08:12 51°24.981 2°41.019 -999 -999 -999 -999 -999
2009-04-28 08:14 51°25.277 2°40.56 -999 -999 -999 -999 -999
2009-04-28 08:16 51°25.571 2°40.105 -999 -999 -999 -999 -999
2009-04-28 08:18 51°25.875 2°39.676 -999 -999 -999 -999 -999
2009-04-28 08:20 51°26.178 2°39.251 -999 -999 -999 -999 -999
2009-04-28 08:22 51°26.453 2°38.768 -999 -999 -999 -999 -999
2009-04-28 08:24 51°26.728 2°38.284 -999 -999 -999 -999 -999
2009-04-28 08:26 51°27.004 2°37.798 -999 -999 -999 -999 -999
2009-04-28 08:28 51°27.311 2°37.369 -999 -999 -999 -999 -999
2009-04-28 08:30 51°27.639 2°36.993 -999 -999 -999 -999 -999
2009-04-28 08:32 51°27.969 2°36.626 -999 -999 -999 -999 -999
2009-04-28 08:34 51°28.318 2°36.32 -999 -999 -999 -999 -999
2009-04-28 08:36 51°28.671 2°36.024 -999 -999 -999 -999 -999
2009-04-28 08:38 51°29.036 2°35.871 -999 -999 -999 -999 -999
2009-04-28 08:40 51°29.386 2°36.046 -999 -999 -999 -999 -999
2009-04-28 08:42 51°29.73 2°36.246 -999 -999 -999 -999 -999
2009-04-28 08:44 51°30.075 2°36.45 -999 -999 -999 -999 -999
2009-04-28 08:46 51°30.419 2°36.647 -999 -999 -999 -999 -999